Cashiers, NC

11:32 PM EDT on August 31, 2016 (GMT -0400)
Wild Ridge | | Change Station

Elev 4160 ft 35.13 °N, 83.11 °W | Updated 0 second ago

Scattered Clouds
Scattered Clouds
66.1 °F
Feels Like 66.1 °F
N
2.0
Wind Variable Wind from South
Gusts 2.0 mph

Today
High -- | Low -- °F
--% Chance of Precip.
Yesterday
High -- | Low -- °F
Precip. -- in
Pressure 30.03 in
Visibility 4.0 miles
Clouds Scattered Clouds 300 ft
Dew Point 63 °F
Humidity 91%
Rainfall 0.00 in
Snow Depth Not available.
7:04 AM 7:59 PM
Waning Crescent, 0% visible
METAR K1A5 010320Z AUTO 00000KT 4SM BR SCT003 19/19 A3003 RMK AO2 T01930185
Pressure 30.03 in
Visibility 4.0 miles
Clouds Scattered Clouds 300 ft
Dew Point 63 °F
Humidity 91%
Rainfall 0.00 in
Snow Depth Not available.
7:04 AM 7:59 PM
Waning Crescent, 0% visible
METAR K1A5 010320Z AUTO 00000KT 4SM BR SCT003 19/19 A3003 RMK AO2 T01930185

10-Day Weather Forecast

Almanac

Astronomy

Aug. 31, 2016 Rise Set
Actual Time
Civil Twilight
Nautical Twilight
Astronomical Twilight
Moon
Length of Visible Light
Length of Day
Tomorrow will be .
, % of the Moon is Illuminated

Today's Extremes

State Highs State Lows

Community

WunderPhotos

Upload Photos

1,936,289 photos uploaded!

WunderBlog® & News

Nearby

Air Quality

  Air Quality AQ Index Pollutant
Not available.

Snow Depth

Station Depth Elevation

Earthquake Activity

City Distance Mag. Time & Date
Minimum magnitude displayed is 2.5.

Coastal Water Temperatures

Place Temperature

Stations

Nearby Weather Stations

Station Location Temp. Windchill Dew Point Humidity Wind Precip. Elev Updated Type
                   

Watches & Warnings

There are currently no watches in effect.